sensor_id;sensor_type;location;lat;lon;timestamp;P1;durP1;ratioP1;P2;durP2;ratioP2
38693;SDS011;24447;43.460;25.744;2023-02-28T00:00:08;17.50;;;5.43;;
38693;SDS011;24447;43.460;25.744;2023-02-28T00:02:38;15.93;;;4.93;;
38693;SDS011;24447;43.460;25.744;2023-02-28T00:05:06;12.65;;;5.45;;
38693;SDS011;24447;43.460;25.744;2023-02-28T00:07:32;15.10;;;5.57;;
38693;SDS011;24447;43.460;25.744;2023-02-28T00:09:58;14.80;;;4.88;;
38693;SDS011;24447;43.460;25.744;2023-02-28T00:12:25;13.25;;;4.85;;
38693;SDS011;24447;43.460;25.744;2023-02-28T00:14:51;14.85;;;5.78;;
38693;SDS011;24447;43.460;25.744;2023-02-28T00:17:17;13.73;;;5.50;;
38693;SDS011;24447;43.460;25.744;2023-02-28T00:19:49;15.27;;;5.95;;
38693;SDS011;24447;43.460;25.744;2023-02-28T00:22:16;13.65;;;5.47;;
38693;SDS011;24447;43.460;25.744;2023-02-28T00:24:44;11.35;;;4.55;;
38693;SDS011;24447;43.460;25.744;2023-02-28T00:27:10;15.63;;;5.13;;
38693;SDS011;24447;43.460;25.744;2023-02-28T00:29:38;9.63;;;4.57;;
38693;SDS011;24447;43.460;25.744;2023-02-28T00:32:04;11.00;;;4.60;;
38693;SDS011;24447;43.460;25.744;2023-02-28T00:34:30;12.75;;;5.53;;
38693;SDS011;24447;43.460;25.744;2023-02-28T00:37:02;13.70;;;4.75;;
38693;SDS011;24447;43.460;25.744;2023-02-28T00:39:33;15.98;;;5.93;;
38693;SDS011;24447;43.460;25.744;2023-02-28T00:41:59;15.95;;;4.68;;
38693;SDS011;24447;43.460;25.744;2023-02-28T00:44:25;14.77;;;5.10;;
38693;SDS011;24447;43.460;25.744;2023-02-28T00:46:51;14.70;;;5.07;;
38693;SDS011;24447;43.460;25.744;2023-02-28T00:49:19;13.13;;;4.85;;
38693;SDS011;24447;43.460;25.744;2023-02-28T00:51:45;15.77;;;5.60;;
38693;SDS011;24447;43.460;25.744;2023-02-28T00:54:11;12.35;;;4.45;;
38693;SDS011;24447;43.460;25.744;2023-02-28T00:56:38;16.25;;;6.05;;
38693;SDS011;24447;43.460;25.744;2023-02-28T00:59:04;11.68;;;4.68;;
38693;SDS011;24447;43.460;25.744;2023-02-28T01:01:30;14.18;;;4.95;;
38693;SDS011;24447;43.460;25.744;2023-02-28T01:03:56;13.68;;;5.47;;
38693;SDS011;24447;43.460;25.744;2023-02-28T01:06:22;14.65;;;5.30;;
38693;SDS011;24447;43.460;25.744;2023-02-28T01:08:48;15.00;;;5.35;;
38693;SDS011;24447;43.460;25.744;2023-02-28T01:11:14;10.88;;;4.53;;
38693;SDS011;24447;43.460;25.744;2023-02-28T01:13:42;11.23;;;4.60;;
38693;SDS011;24447;43.460;25.744;2023-02-28T01:16:08;10.50;;;4.70;;
38693;SDS011;24447;43.460;25.744;2023-02-28T01:18:35;10.07;;;4.40;;
38693;SDS011;24447;43.460;25.744;2023-02-28T01:21:04;12.30;;;5.18;;
38693;SDS011;24447;43.460;25.744;2023-02-28T01:23:34;16.77;;;5.55;;
38693;SDS011;24447;43.460;25.744;2023-02-28T01:26:04;14.75;;;6.65;;
38693;SDS011;24447;43.460;25.744;2023-02-28T01:28:34;11.43;;;4.60;;
38693;SDS011;24447;43.460;25.744;2023-02-28T01:31:00;10.45;;;4.90;;
38693;SDS011;24447;43.460;25.744;2023-02-28T01:33:26;12.23;;;4.68;;
38693;SDS011;24447;43.460;25.744;2023-02-28T01:36:00;10.50;;;4.13;;
38693;SDS011;24447;43.460;25.744;2023-02-28T01:38:26;13.40;;;4.35;;
38693;SDS011;24447;43.460;25.744;2023-02-28T01:40:53;11.45;;;4.38;;
38693;SDS011;24447;43.460;25.744;2023-02-28T01:43:23;9.07;;;3.63;;
38693;SDS011;24447;43.460;25.744;2023-02-28T01:45:52;13.20;;;5.03;;
38693;SDS011;24447;43.460;25.744;2023-02-28T01:48:18;11.85;;;4.72;;
38693;SDS011;24447;43.460;25.744;2023-02-28T01:50:47;14.13;;;4.97;;
38693;SDS011;24447;43.460;25.744;2023-02-28T01:53:15;13.35;;;5.00;;
38693;SDS011;24447;43.460;25.744;2023-02-28T01:55:45;10.80;;;4.50;;
38693;SDS011;24447;43.460;25.744;2023-02-28T01:58:12;12.38;;;4.85;;
38693;SDS011;24447;43.460;25.744;2023-02-28T02:00:39;12.38;;;4.72;;
38693;SDS011;24447;43.460;25.744;2023-02-28T02:03:11;12.35;;;4.10;;
38693;SDS011;24447;43.460;25.744;2023-02-28T02:05:39;15.77;;;5.07;;
38693;SDS011;24447;43.460;25.744;2023-02-28T02:08:08;9.60;;;4.13;;
38693;SDS011;24447;43.460;25.744;2023-02-28T02:10:39;10.38;;;5.13;;
38693;SDS011;24447;43.460;25.744;2023-02-28T02:19:03;12.23;;;4.60;;
38693;SDS011;24447;43.460;25.744;2023-02-28T02:35:16;10.93;;;4.18;;
38693;SDS011;24447;43.460;25.744;2023-02-28T02:40:38;7.72;;;3.97;;
38693;SDS011;24447;43.460;25.744;2023-02-28T02:43:16;7.40;;;2.88;;
38693;SDS011;24447;43.460;25.744;2023-02-28T02:48:45;8.88;;;3.60;;
38693;SDS011;24447;43.460;25.744;2023-02-28T02:51:13;7.22;;;3.83;;
38693;SDS011;24447;43.460;25.744;2023-02-28T02:54:24;8.63;;;3.65;;
38693;SDS011;24447;43.460;25.744;2023-02-28T02:56:33;12.55;;;4.53;;
38693;SDS011;24447;43.460;25.744;2023-02-28T02:59:01;12.23;;;4.00;;
38693;SDS011;24447;43.460;25.744;2023-02-28T03:01:29;14.38;;;5.00;;
38693;SDS011;24447;43.460;25.744;2023-02-28T03:04:01;10.88;;;4.80;;
38693;SDS011;24447;43.460;25.744;2023-02-28T03:06:29;28.10;;;9.90;;
38693;SDS011;24447;43.460;25.744;2023-02-28T03:08:55;11.48;;;5.05;;
38693;SDS011;24447;43.460;25.744;2023-02-28T03:11:21;14.25;;;5.18;;
38693;SDS011;24447;43.460;25.744;2023-02-28T03:24:27;10.35;;;5.35;;
38693;SDS011;24447;43.460;25.744;2023-02-28T03:27:03;14.88;;;6.18;;
38693;SDS011;24447;43.460;25.744;2023-02-28T03:29:42;8.95;;;4.60;;
38693;SDS011;24447;43.460;25.744;2023-02-28T03:32:17;10.27;;;4.78;;
38693;SDS011;24447;43.460;25.744;2023-02-28T03:34:53;11.57;;;5.18;;
38693;SDS011;24447;43.460;25.744;2023-02-28T03:37:23;10.65;;;5.95;;
38693;SDS011;24447;43.460;25.744;2023-02-28T03:39:53;14.88;;;6.40;;
38693;SDS011;24447;43.460;25.744;2023-02-28T03:42:29;15.05;;;6.03;;
38693;SDS011;24447;43.460;25.744;2023-02-28T03:44:58;12.45;;;5.07;;
38693;SDS011;24447;43.460;25.744;2023-02-28T03:47:37;17.75;;;6.30;;
38693;SDS011;24447;43.460;25.744;2023-02-28T03:50:07;12.88;;;6.63;;
38693;SDS011;24447;43.460;25.744;2023-02-28T03:52:37;14.07;;;6.05;;
38693;SDS011;24447;43.460;25.744;2023-02-28T03:55:07;14.50;;;5.83;;
38693;SDS011;24447;43.460;25.744;2023-02-28T03:57:54;11.95;;;5.75;;
38693;SDS011;24447;43.460;25.744;2023-02-28T04:00:25;15.85;;;6.05;;
38693;SDS011;24447;43.460;25.744;2023-02-28T04:02:54;12.98;;;5.15;;
38693;SDS011;24447;43.460;25.744;2023-02-28T04:05:20;16.67;;;6.35;;
38693;SDS011;24447;43.460;25.744;2023-02-28T04:07:47;14.38;;;4.85;;
38693;SDS011;24447;43.460;25.744;2023-02-28T04:10:22;16.88;;;6.78;;
38693;SDS011;24447;43.460;25.744;2023-02-28T04:12:48;15.75;;;6.20;;
38693;SDS011;24447;43.460;25.744;2023-02-28T04:15:14;17.50;;;7.00;;
38693;SDS011;24447;43.460;25.744;2023-02-28T04:17:40;21.10;;;8.05;;
38693;SDS011;24447;43.460;25.744;2023-02-28T04:20:06;18.83;;;7.28;;
38693;SDS011;24447;43.460;25.744;2023-02-28T04:22:34;15.38;;;6.50;;
38693;SDS011;24447;43.460;25.744;2023-02-28T04:25:01;14.80;;;6.40;;
38693;SDS011;24447;43.460;25.744;2023-02-28T04:27:27;19.17;;;8.13;;
38693;SDS011;24447;43.460;25.744;2023-02-28T04:29:52;17.15;;;6.82;;
38693;SDS011;24447;43.460;25.744;2023-02-28T04:32:18;13.38;;;5.78;;
38693;SDS011;24447;43.460;25.744;2023-02-28T04:34:44;15.43;;;6.65;;
38693;SDS011;24447;43.460;25.744;2023-02-28T04:37:10;16.55;;;6.50;;
38693;SDS011;24447;43.460;25.744;2023-02-28T04:39:36;16.77;;;6.97;;
38693;SDS011;24447;43.460;25.744;2023-02-28T04:42:02;16.65;;;6.10;;
38693;SDS011;24447;43.460;25.744;2023-02-28T04:44:29;18.38;;;6.18;;
38693;SDS011;24447;43.460;25.744;2023-02-28T04:46:54;15.00;;;5.53;;
38693;SDS011;24447;43.460;25.744;2023-02-28T04:49:20;18.60;;;7.65;;
38693;SDS011;24447;43.460;25.744;2023-02-28T04:51:46;16.20;;;7.50;;
38693;SDS011;24447;43.460;25.744;2023-02-28T04:54:12;22.65;;;9.80;;
38693;SDS011;24447;43.460;25.744;2023-02-28T04:56:38;16.55;;;6.97;;
38693;SDS011;24447;43.460;25.744;2023-02-28T04:59:04;15.88;;;6.15;;
38693;SDS011;24447;43.460;25.744;2023-02-28T05:01:31;16.77;;;6.95;;
38693;SDS011;24447;43.460;25.744;2023-02-28T05:03:59;20.05;;;8.25;;
38693;SDS011;24447;43.460;25.744;2023-02-28T05:06:27;18.27;;;6.78;;
38693;SDS011;24447;43.460;25.744;2023-02-28T05:08:55;24.45;;;9.65;;
38693;SDS011;24447;43.460;25.744;2023-02-28T05:11:23;18.05;;;6.10;;
38693;SDS011;24447;43.460;25.744;2023-02-28T05:13:50;22.80;;;8.95;;
38693;SDS011;24447;43.460;25.744;2023-02-28T05:16:17;17.95;;;7.40;;
38693;SDS011;24447;43.460;25.744;2023-02-28T05:18:43;16.80;;;6.55;;
38693;SDS011;24447;43.460;25.744;2023-02-28T05:23:52;15.15;;;6.47;;
38693;SDS011;24447;43.460;25.744;2023-02-28T05:26:18;13.80;;;5.63;;
38693;SDS011;24447;43.460;25.744;2023-02-28T05:28:44;14.93;;;6.00;;
38693;SDS011;24447;43.460;25.744;2023-02-28T05:31:10;18.65;;;7.50;;
38693;SDS011;24447;43.460;25.744;2023-02-28T05:33:36;16.10;;;6.13;;
38693;SDS011;24447;43.460;25.744;2023-02-28T05:36:03;15.73;;;6.38;;
38693;SDS011;24447;43.460;25.744;2023-02-28T05:38:29;15.10;;;5.88;;
38693;SDS011;24447;43.460;25.744;2023-02-28T05:40:55;14.73;;;6.22;;
38693;SDS011;24447;43.460;25.744;2023-02-28T05:43:21;19.42;;;6.70;;
38693;SDS011;24447;43.460;25.744;2023-02-28T05:45:47;16.67;;;6.53;;
38693;SDS011;24447;43.460;25.744;2023-02-28T05:48:13;17.95;;;7.28;;
38693;SDS011;24447;43.460;25.744;2023-02-28T05:50:39;22.77;;;8.57;;
38693;SDS011;24447;43.460;25.744;2023-02-28T05:53:07;17.63;;;6.97;;
38693;SDS011;24447;43.460;25.744;2023-02-28T05:55:33;13.52;;;5.90;;
38693;SDS011;24447;43.460;25.744;2023-02-28T05:58:01;9.63;;;4.90;;
38693;SDS011;24447;43.460;25.744;2023-02-28T06:00:27;12.77;;;5.55;;
38693;SDS011;24447;43.460;25.744;2023-02-28T06:02:52;14.27;;;6.13;;
38693;SDS011;24447;43.460;25.744;2023-02-28T06:05:21;15.73;;;6.95;;
38693;SDS011;24447;43.460;25.744;2023-02-28T06:07:47;18.95;;;6.50;;
38693;SDS011;24447;43.460;25.744;2023-02-28T06:10:13;16.80;;;6.60;;
38693;SDS011;24447;43.460;25.744;2023-02-28T06:12:39;16.85;;;6.22;;
38693;SDS011;24447;43.460;25.744;2023-02-28T06:15:07;12.05;;;5.32;;
38693;SDS011;24447;43.460;25.744;2023-02-28T06:17:34;12.90;;;4.93;;
38693;SDS011;24447;43.460;25.744;2023-02-28T06:20:00;16.52;;;6.75;;
38693;SDS011;24447;43.460;25.744;2023-02-28T06:22:27;16.05;;;6.03;;
38693;SDS011;24447;43.460;25.744;2023-02-28T06:24:52;14.93;;;6.05;;
38693;SDS011;24447;43.460;25.744;2023-02-28T06:27:19;13.65;;;5.90;;
38693;SDS011;24447;43.460;25.744;2023-02-28T06:29:46;15.57;;;6.05;;
38693;SDS011;24447;43.460;25.744;2023-02-28T06:32:12;20.70;;;5.32;;
38693;SDS011;24447;43.460;25.744;2023-02-28T06:34:38;11.27;;;4.88;;
38693;SDS011;24447;43.460;25.744;2023-02-28T06:37:03;15.07;;;6.18;;
38693;SDS011;24447;43.460;25.744;2023-02-28T06:39:30;14.02;;;5.90;;
38693;SDS011;24447;43.460;25.744;2023-02-28T06:41:56;15.43;;;6.32;;
38693;SDS011;24447;43.460;25.744;2023-02-28T06:44:22;15.30;;;5.53;;
38693;SDS011;24447;43.460;25.744;2023-02-28T06:46:48;20.02;;;6.90;;
38693;SDS011;24447;43.460;25.744;2023-02-28T06:49:15;14.50;;;5.97;;
38693;SDS011;24447;43.460;25.744;2023-02-28T06:51:41;15.65;;;5.57;;
38693;SDS011;24447;43.460;25.744;2023-02-28T06:54:11;18.73;;;6.45;;
38693;SDS011;24447;43.460;25.744;2023-02-28T06:56:37;16.38;;;5.47;;
38693;SDS011;24447;43.460;25.744;2023-02-28T06:59:03;13.60;;;6.38;;
38693;SDS011;24447;43.460;25.744;2023-02-28T07:01:29;17.02;;;7.00;;
38693;SDS011;24447;43.460;25.744;2023-02-28T07:03:57;20.40;;;7.63;;
38693;SDS011;24447;43.460;25.744;2023-02-28T07:06:25;15.32;;;6.35;;
38693;SDS011;24447;43.460;25.744;2023-02-28T07:08:52;15.85;;;6.10;;
38693;SDS011;24447;43.460;25.744;2023-02-28T07:11:19;15.32;;;5.55;;
38693;SDS011;24447;43.460;25.744;2023-02-28T07:13:47;14.00;;;5.50;;
38693;SDS011;24447;43.460;25.744;2023-02-28T07:16:14;13.27;;;4.90;;
38693;SDS011;24447;43.460;25.744;2023-02-28T07:18:40;11.20;;;4.05;;
38693;SDS011;24447;43.460;25.744;2023-02-28T07:21:07;15.18;;;6.20;;
38693;SDS011;24447;43.460;25.744;2023-02-28T07:23:34;11.75;;;5.22;;
38693;SDS011;24447;43.460;25.744;2023-02-28T07:26:00;13.38;;;5.63;;
38693;SDS011;24447;43.460;25.744;2023-02-28T07:28:26;12.52;;;5.68;;
38693;SDS011;24447;43.460;25.744;2023-02-28T07:30:52;15.43;;;4.90;;
38693;SDS011;24447;43.460;25.744;2023-02-28T07:33:18;14.27;;;6.05;;
38693;SDS011;24447;43.460;25.744;2023-02-28T07:35:44;10.30;;;4.80;;
38693;SDS011;24447;43.460;25.744;2023-02-28T07:38:10;13.05;;;4.78;;
38693;SDS011;24447;43.460;25.744;2023-02-28T07:40:39;12.90;;;4.65;;
38693;SDS011;24447;43.460;25.744;2023-02-28T07:43:07;12.93;;;5.05;;
38693;SDS011;24447;43.460;25.744;2023-02-28T07:45:33;12.27;;;5.07;;
38693;SDS011;24447;43.460;25.744;2023-02-28T07:48:00;14.95;;;5.85;;
38693;SDS011;24447;43.460;25.744;2023-02-28T07:50:26;12.07;;;5.00;;
38693;SDS011;24447;43.460;25.744;2023-02-28T07:52:56;9.60;;;4.25;;
38693;SDS011;24447;43.460;25.744;2023-02-28T07:55:23;12.70;;;4.97;;
38693;SDS011;24447;43.460;25.744;2023-02-28T07:57:49;11.43;;;6.10;;
38693;SDS011;24447;43.460;25.744;2023-02-28T08:00:15;11.43;;;4.38;;
38693;SDS011;24447;43.460;25.744;2023-02-28T08:02:41;12.65;;;5.10;;
38693;SDS011;24447;43.460;25.744;2023-02-28T08:05:07;11.90;;;5.40;;
38693;SDS011;24447;43.460;25.744;2023-02-28T08:07:34;16.40;;;5.57;;
38693;SDS011;24447;43.460;25.744;2023-02-28T08:10:00;13.48;;;4.90;;
38693;SDS011;24447;43.460;25.744;2023-02-28T08:12:25;16.35;;;5.80;;
38693;SDS011;24447;43.460;25.744;2023-02-28T08:14:51;11.98;;;4.75;;
38693;SDS011;24447;43.460;25.744;2023-02-28T08:17:17;12.77;;;4.78;;
38693;SDS011;24447;43.460;25.744;2023-02-28T08:19:46;12.52;;;5.50;;
38693;SDS011;24447;43.460;25.744;2023-02-28T08:22:12;17.42;;;6.07;;
38693;SDS011;24447;43.460;25.744;2023-02-28T08:24:38;14.85;;;5.43;;
38693;SDS011;24447;43.460;25.744;2023-02-28T08:27:06;9.35;;;4.05;;
38693;SDS011;24447;43.460;25.744;2023-02-28T08:29:32;9.93;;;4.68;;
38693;SDS011;24447;43.460;25.744;2023-02-28T08:31:58;11.73;;;5.10;;
38693;SDS011;24447;43.460;25.744;2023-02-28T08:34:24;11.05;;;4.05;;
38693;SDS011;24447;43.460;25.744;2023-02-28T08:36:50;10.15;;;4.75;;
38693;SDS011;24447;43.460;25.744;2023-02-28T08:39:16;7.82;;;4.07;;
38693;SDS011;24447;43.460;25.744;2023-02-28T08:41:42;13.88;;;5.93;;
38693;SDS011;24447;43.460;25.744;2023-02-28T08:44:09;10.20;;;4.28;;
38693;SDS011;24447;43.460;25.744;2023-02-28T08:46:34;13.40;;;4.45;;
38693;SDS011;24447;43.460;25.744;2023-02-28T08:49:00;10.45;;;5.43;;
38693;SDS011;24447;43.460;25.744;2023-02-28T08:51:27;12.35;;;5.13;;
38693;SDS011;24447;43.460;25.744;2023-02-28T08:54:00;11.20;;;5.13;;
38693;SDS011;24447;43.460;25.744;2023-02-28T08:56:27;10.73;;;4.60;;
38693;SDS011;24447;43.460;25.744;2023-02-28T08:58:54;11.18;;;4.15;;
38693;SDS011;24447;43.460;25.744;2023-02-28T09:01:22;11.68;;;5.07;;
38693;SDS011;24447;43.460;25.744;2023-02-28T09:03:53;15.27;;;4.75;;
38693;SDS011;24447;43.460;25.744;2023-02-28T09:06:20;15.25;;;6.22;;
38693;SDS011;24447;43.460;25.744;2023-02-28T09:08:47;14.02;;;4.90;;
38693;SDS011;24447;43.460;25.744;2023-02-28T09:11:13;13.98;;;5.57;;
38693;SDS011;24447;43.460;25.744;2023-02-28T09:18:37;14.98;;;4.75;;
38693;SDS011;24447;43.460;25.744;2023-02-28T09:21:04;16.25;;;5.70;;
38693;SDS011;24447;43.460;25.744;2023-02-28T09:23:31;15.13;;;5.38;;
38693;SDS011;24447;43.460;25.744;2023-02-28T09:25:57;20.67;;;7.35;;
38693;SDS011;24447;43.460;25.744;2023-02-28T09:28:23;13.30;;;5.10;;
38693;SDS011;24447;43.460;25.744;2023-02-28T09:30:51;13.88;;;5.68;;
38693;SDS011;24447;43.460;25.744;2023-02-28T09:33:18;10.93;;;5.43;;
38693;SDS011;24447;43.460;25.744;2023-02-28T09:35:48;15.10;;;5.78;;
38693;SDS011;24447;43.460;25.744;2023-02-28T09:38:16;17.52;;;6.03;;
38693;SDS011;24447;43.460;25.744;2023-02-28T09:40:50;14.77;;;5.70;;
38693;SDS011;24447;43.460;25.744;2023-02-28T09:43:17;10.15;;;4.68;;
38693;SDS011;24447;43.460;25.744;2023-02-28T09:45:59;18.58;;;6.30;;
38693;SDS011;24447;43.460;25.744;2023-02-28T09:48:31;17.92;;;7.07;;
38693;SDS011;24447;43.460;25.744;2023-02-28T09:51:04;19.27;;;6.60;;
38693;SDS011;24447;43.460;25.744;2023-02-28T09:53:36;14.57;;;5.90;;
38693;SDS011;24447;43.460;25.744;2023-02-28T09:56:05;15.07;;;6.30;;
38693;SDS011;24447;43.460;25.744;2023-02-28T10:06:50;13.38;;;5.38;;
38693;SDS011;24447;43.460;25.744;2023-02-28T10:09:21;15.48;;;6.13;;
38693;SDS011;24447;43.460;25.744;2023-02-28T10:12:00;15.52;;;7.30;;
38693;SDS011;24447;43.460;25.744;2023-02-28T10:14:31;17.33;;;6.80;;
38693;SDS011;24447;43.460;25.744;2023-02-28T10:17:18;21.23;;;8.18;;
38693;SDS011;24447;43.460;25.744;2023-02-28T10:19:58;18.08;;;7.50;;
38693;SDS011;24447;43.460;25.744;2023-02-28T10:22:34;16.70;;;5.53;;
38693;SDS011;24447;43.460;25.744;2023-02-28T10:25:23;16.23;;;6.72;;
38693;SDS011;24447;43.460;25.744;2023-02-28T10:28:00;16.65;;;7.40;;
38693;SDS011;24447;43.460;25.744;2023-02-28T10:30:31;19.60;;;7.28;;
38693;SDS011;24447;43.460;25.744;2023-02-28T10:32:57;19.25;;;7.03;;
38693;SDS011;24447;43.460;25.744;2023-02-28T10:35:26;22.02;;;8.38;;
38693;SDS011;24447;43.460;25.744;2023-02-28T10:37:57;30.02;;;11.30;;
38693;SDS011;24447;43.460;25.744;2023-02-28T10:43:03;39.35;;;14.23;;
38693;SDS011;24447;43.460;25.744;2023-02-28T10:45:34;26.30;;;9.90;;
38693;SDS011;24447;43.460;25.744;2023-02-28T10:56:04;31.58;;;11.63;;
38693;SDS011;24447;43.460;25.744;2023-02-28T10:58:53;63.88;;;21.27;;
38693;SDS011;24447;43.460;25.744;2023-02-28T11:01:22;38.42;;;14.40;;
38693;SDS011;24447;43.460;25.744;2023-02-28T11:04:17;22.88;;;8.82;;
38693;SDS011;24447;43.460;25.744;2023-02-28T11:07:00;24.20;;;9.05;;
38693;SDS011;24447;43.460;25.744;2023-02-28T11:11:54;26.85;;;11.77;;
38693;SDS011;24447;43.460;25.744;2023-02-28T11:14:24;20.42;;;8.98;;
38693;SDS011;24447;43.460;25.744;2023-02-28T11:16:53;18.67;;;7.95;;
38693;SDS011;24447;43.460;25.744;2023-02-28T11:19:38;18.60;;;8.10;;
38693;SDS011;24447;43.460;25.744;2023-02-28T11:22:05;27.83;;;8.98;;
38693;SDS011;24447;43.460;25.744;2023-02-28T11:24:37;16.55;;;7.18;;
38693;SDS011;24447;43.460;25.744;2023-02-28T11:27:24;16.42;;;7.05;;
38693;SDS011;24447;43.460;25.744;2023-02-28T11:32:59;24.65;;;9.57;;
38693;SDS011;24447;43.460;25.744;2023-02-28T11:35:33;17.05;;;7.22;;
38693;SDS011;24447;43.460;25.744;2023-02-28T11:38:02;18.05;;;6.82;;
38693;SDS011;24447;43.460;25.744;2023-02-28T11:40:30;19.33;;;7.55;;
38693;SDS011;24447;43.460;25.744;2023-02-28T11:43:35;19.45;;;7.47;;
38693;SDS011;24447;43.460;25.744;2023-02-28T11:51:28;16.20;;;7.55;;
38693;SDS011;24447;43.460;25.744;2023-02-28T11:56:49;22.08;;;8.57;;
38693;SDS011;24447;43.460;25.744;2023-02-28T12:02:05;20.65;;;8.40;;
38693;SDS011;24447;43.460;25.744;2023-02-28T12:10:35;25.10;;;9.82;;
38693;SDS011;24447;43.460;25.744;2023-02-28T12:13:29;27.50;;;8.45;;
38693;SDS011;24447;43.460;25.744;2023-02-28T12:26:59;23.63;;;8.25;;
38693;SDS011;24447;43.460;25.744;2023-02-28T12:29:28;18.33;;;7.78;;
38693;SDS011;24447;43.460;25.744;2023-02-28T12:32:04;19.23;;;8.07;;
38693;SDS011;24447;43.460;25.744;2023-02-28T12:34:33;18.70;;;7.63;;
38693;SDS011;24447;43.460;25.744;2023-02-28T12:37:04;22.05;;;9.50;;
38693;SDS011;24447;43.460;25.744;2023-02-28T12:39:39;25.27;;;9.23;;
38693;SDS011;24447;43.460;25.744;2023-02-28T12:42:19;26.27;;;10.25;;
38693;SDS011;24447;43.460;25.744;2023-02-28T12:44:58;22.15;;;8.02;;
38693;SDS011;24447;43.460;25.744;2023-02-28T12:47:26;22.90;;;8.38;;
38693;SDS011;24447;43.460;25.744;2023-02-28T12:49:56;19.52;;;7.55;;
38693;SDS011;24447;43.460;25.744;2023-02-28T12:52:26;19.13;;;8.57;;
38693;SDS011;24447;43.460;25.744;2023-02-28T12:55:19;17.52;;;7.45;;
38693;SDS011;24447;43.460;25.744;2023-02-28T12:58:00;23.73;;;8.13;;
38693;SDS011;24447;43.460;25.744;2023-02-28T13:09:31;27.80;;;9.07;;
38693;SDS011;24447;43.460;25.744;2023-02-28T13:11:57;21.10;;;8.45;;
38693;SDS011;24447;43.460;25.744;2023-02-28T13:14:24;22.15;;;7.28;;
38693;SDS011;24447;43.460;25.744;2023-02-28T13:19:25;24.65;;;10.95;;
38693;SDS011;24447;43.460;25.744;2023-02-28T13:21:53;23.65;;;9.32;;
38693;SDS011;24447;43.460;25.744;2023-02-28T13:24:41;25.25;;;9.68;;
38693;SDS011;24447;43.460;25.744;2023-02-28T13:27:11;25.83;;;9.27;;
38693;SDS011;24447;43.460;25.744;2023-02-28T13:29:48;27.48;;;10.57;;
38693;SDS011;24447;43.460;25.744;2023-02-28T13:32:18;33.65;;;12.18;;
38693;SDS011;24447;43.460;25.744;2023-02-28T13:47:44;24.05;;;9.50;;
38693;SDS011;24447;43.460;25.744;2023-02-28T14:01:06;36.80;;;12.85;;
38693;SDS011;24447;43.460;25.744;2023-02-28T14:06:28;32.53;;;10.82;;
38693;SDS011;24447;43.460;25.744;2023-02-28T14:09:02;27.38;;;10.88;;
38693;SDS011;24447;43.460;25.744;2023-02-28T14:11:44;30.50;;;11.98;;
38693;SDS011;24447;43.460;25.744;2023-02-28T14:14:56;30.80;;;9.95;;
38693;SDS011;24447;43.460;25.744;2023-02-28T14:17:00;31.77;;;12.93;;
38693;SDS011;24447;43.460;25.744;2023-02-28T14:19:28;29.92;;;12.63;;
38693;SDS011;24447;43.460;25.744;2023-02-28T14:30:43;37.58;;;16.15;;
38693;SDS011;24447;43.460;25.744;2023-02-28T14:33:25;37.42;;;14.10;;
38693;SDS011;24447;43.460;25.744;2023-02-28T14:38:40;34.85;;;15.02;;
38693;SDS011;24447;43.460;25.744;2023-02-28T14:41:43;35.33;;;13.13;;
38693;SDS011;24447;43.460;25.744;2023-02-28T14:44:18;32.25;;;13.23;;
38693;SDS011;24447;43.460;25.744;2023-02-28T14:46:46;41.40;;;16.85;;
38693;SDS011;24447;43.460;25.744;2023-02-28T14:52:06;35.53;;;15.93;;
38693;SDS011;24447;43.460;25.744;2023-02-28T14:54:37;32.20;;;12.50;;
38693;SDS011;24447;43.460;25.744;2023-02-28T14:57:03;54.03;;;21.48;;
38693;SDS011;24447;43.460;25.744;2023-02-28T14:59:31;36.85;;;15.43;;
38693;SDS011;24447;43.460;25.744;2023-02-28T15:02:23;30.02;;;12.50;;
38693;SDS011;24447;43.460;25.744;2023-02-28T15:04:54;34.95;;;14.10;;
38693;SDS011;24447;43.460;25.744;2023-02-28T15:07:24;29.58;;;13.80;;
38693;SDS011;24447;43.460;25.744;2023-02-28T15:12:51;29.33;;;12.02;;
38693;SDS011;24447;43.460;25.744;2023-02-28T15:15:21;28.83;;;11.05;;
38693;SDS011;24447;43.460;25.744;2023-02-28T15:17:51;32.85;;;10.80;;
38693;SDS011;24447;43.460;25.744;2023-02-28T15:20:20;33.00;;;11.57;;
38693;SDS011;24447;43.460;25.744;2023-02-28T15:22:47;25.98;;;10.93;;
38693;SDS011;24447;43.460;25.744;2023-02-28T15:25:17;30.10;;;11.73;;
38693;SDS011;24447;43.460;25.744;2023-02-28T15:27:49;31.80;;;13.52;;
38693;SDS011;24447;43.460;25.744;2023-02-28T15:30:35;27.00;;;11.98;;
38693;SDS011;24447;43.460;25.744;2023-02-28T15:35:37;33.22;;;12.27;;
38693;SDS011;24447;43.460;25.744;2023-02-28T15:38:12;25.00;;;10.98;;
38693;SDS011;24447;43.460;25.744;2023-02-28T15:43:15;25.55;;;9.80;;
38693;SDS011;24447;43.460;25.744;2023-02-28T15:46:02;26.67;;;10.50;;
38693;SDS011;24447;43.460;25.744;2023-02-28T15:51:19;31.08;;;11.32;;
38693;SDS011;24447;43.460;25.744;2023-02-28T15:53:48;35.65;;;12.43;;
38693;SDS011;24447;43.460;25.744;2023-02-28T15:56:21;27.23;;;10.02;;
38693;SDS011;24447;43.460;25.744;2023-02-28T15:59:02;28.63;;;10.88;;
38693;SDS011;24447;43.460;25.744;2023-02-28T16:01:34;24.35;;;8.70;;
38693;SDS011;24447;43.460;25.744;2023-02-28T16:04:05;26.33;;;10.07;;
38693;SDS011;24447;43.460;25.744;2023-02-28T16:06:37;22.70;;;10.23;;
38693;SDS011;24447;43.460;25.744;2023-02-28T16:09:12;26.95;;;9.60;;
38693;SDS011;24447;43.460;25.744;2023-02-28T16:11:40;23.17;;;9.07;;
38693;SDS011;24447;43.460;25.744;2023-02-28T16:14:12;27.00;;;9.40;;
38693;SDS011;24447;43.460;25.744;2023-02-28T16:16:44;39.55;;;15.70;;
38693;SDS011;24447;43.460;25.744;2023-02-28T16:19:11;33.00;;;13.60;;
38693;SDS011;24447;43.460;25.744;2023-02-28T16:21:37;30.83;;;12.18;;
38693;SDS011;24447;43.460;25.744;2023-02-28T16:24:03;28.80;;;12.50;;
38693;SDS011;24447;43.460;25.744;2023-02-28T16:26:29;32.25;;;10.63;;
38693;SDS011;24447;43.460;25.744;2023-02-28T16:28:55;38.92;;;17.55;;
38693;SDS011;24447;43.460;25.744;2023-02-28T16:31:21;38.05;;;17.40;;
38693;SDS011;24447;43.460;25.744;2023-02-28T16:33:47;40.78;;;17.38;;
38693;SDS011;24447;43.460;25.744;2023-02-28T16:36:31;29.73;;;11.60;;
38693;SDS011;24447;43.460;25.744;2023-02-28T16:38:57;26.15;;;9.10;;
38693;SDS011;24447;43.460;25.744;2023-02-28T16:41:26;25.83;;;10.35;;
38693;SDS011;24447;43.460;25.744;2023-02-28T16:43:53;27.30;;;10.68;;
38693;SDS011;24447;43.460;25.744;2023-02-28T16:46:24;24.23;;;9.35;;
38693;SDS011;24447;43.460;25.744;2023-02-28T16:48:52;22.92;;;7.65;;
38693;SDS011;24447;43.460;25.744;2023-02-28T16:51:18;21.45;;;8.95;;
38693;SDS011;24447;43.460;25.744;2023-02-28T16:53:44;21.52;;;7.57;;
38693;SDS011;24447;43.460;25.744;2023-02-28T16:56:20;20.83;;;8.38;;
38693;SDS011;24447;43.460;25.744;2023-02-28T16:58:48;25.33;;;8.45;;
38693;SDS011;24447;43.460;25.744;2023-02-28T17:01:15;44.03;;;17.77;;
38693;SDS011;24447;43.460;25.744;2023-02-28T17:03:41;25.92;;;11.52;;
38693;SDS011;24447;43.460;25.744;2023-02-28T17:06:16;23.95;;;9.35;;
38693;SDS011;24447;43.460;25.744;2023-02-28T17:08:47;21.83;;;7.75;;
38693;SDS011;24447;43.460;25.744;2023-02-28T17:11:14;23.52;;;9.65;;
38693;SDS011;24447;43.460;25.744;2023-02-28T17:13:40;20.55;;;7.75;;